Time;durP1;ratioP1;P1;durP2;ratioP2;P2;SDS_P1;SDS_P2;PMS_P1;PMS_P2;Temp;Humidity;BMP_temperature;BMP_pressure;BME280_temperature;BME280_humidity;BME280_pressure;Samples;Min_cycle;Max_cycle;Signal;HPM_P1;HPM_P2
2021/07/06 00:01:04;;;;;;;10.48;2.15;;;19.60;99.90;;;;;;3601515;39;20239;-79
2021/07/06 00:03:32;;;;;;;6.45;2.28;;;19.60;99.90;;;;;;3604028;39;20235;-79
2021/07/06 00:05:59;;;;;;;5.75;2.03;;;19.70;99.90;;;;;;3603171;39;20242;-78
2021/07/06 00:08:26;;;;;;;4.57;2.20;;;19.50;99.90;;;;;;3603111;39;20230;-84
2021/07/06 00:10:53;;;;;;;2.75;2.00;;;19.40;99.90;;;;;;3602970;39;20265;-79
2021/07/06 00:13:21;;;;;;;11.13;2.28;;;19.30;99.90;;;;;;3603209;39;20230;-78
2021/07/06 00:15:49;;;;;;;2.38;1.73;;;19.20;99.90;;;;;;3603191;39;20203;-78
2021/07/06 00:18:16;;;;;;;5.80;3.33;;;19.20;99.90;;;;;;3603139;39;20267;-80
2021/07/06 00:20:43;;;;;;;6.80;2.13;;;19.30;99.90;;;;;;3595778;39;20235;-79
2021/07/06 00:23:10;;;;;;;2.40;2.00;;;19.20;99.90;;;;;;3593043;40;20246;-77
2021/07/06 00:25:37;;;;;;;3.20;2.15;;;19.20;99.90;;;;;;3593158;40;20234;-78
2021/07/06 00:28:05;;;;;;;2.78;2.03;;;19.40;99.90;;;;;;3595173;39;20270;-78
2021/07/06 00:30:34;;;;;;;3.45;2.33;;;19.40;99.90;;;;;;3603272;39;20257;-81
2021/07/06 00:33:01;;;;;;;4.95;2.25;;;19.30;99.90;;;;;;3612943;39;20237;-79
2021/07/06 00:35:28;;;;;;;3.97;1.75;;;19.40;99.90;;;;;;3608112;39;20692;-79
2021/07/06 00:37:55;;;;;;;1.85;1.67;;;19.40;99.90;;;;;;3602891;39;20649;-78
2021/07/06 00:40:22;;;;;;;3.88;1.80;;;19.40;99.90;;;;;;3602606;39;20239;-78
2021/07/06 00:42:50;;;;;;;5.88;2.45;;;19.40;99.90;;;;;;3603000;39;20234;-79
2021/07/06 00:45:19;;;;;;;5.45;2.28;;;19.50;99.90;;;;;;3602991;39;20234;-80
2021/07/06 00:47:47;;;;;;;4.97;2.05;;;19.50;99.90;;;;;;3602932;39;20234;-78
2021/07/06 00:50:17;;;;;;;3.97;1.92;;;19.50;99.90;;;;;;3602869;39;20956;-79
2021/07/06 00:52:44;;;;;;;1.70;1.60;;;19.50;99.90;;;;;;3601880;39;20226;-78
2021/07/06 00:55:12;;;;;;;2.25;1.48;;;19.40;99.90;;;;;;3602935;39;20234;-83
2021/07/06 00:57:39;;;;;;;2.50;1.77;;;19.40;99.90;;;;;;3602948;39;20215;-78
2021/07/06 01:00:09;;;;;;;8.65;1.92;;;19.40;99.90;;;;;;3602711;39;20227;-79
2021/07/06 01:02:37;;;;;;;3.85;2.17;;;19.30;99.90;;;;;;3602939;39;20238;-78
2021/07/06 01:05:06;;;;;;;1.92;1.73;;;19.30;99.90;;;;;;3602749;39;20609;-78
2021/07/06 01:07:33;;;;;;;3.00;1.70;;;19.30;99.90;;;;;;3602808;39;20227;-78
2021/07/06 01:10:01;;;;;;;2.33;2.00;;;19.30;99.90;;;;;;3602641;39;20237;-78
2021/07/06 01:12:31;;;;;;;6.07;1.88;;;19.40;99.90;;;;;;3602855;39;20243;-79
2021/07/06 01:14:58;;;;;;;4.18;1.75;;;19.40;99.90;;;;;;3594215;40;20280;-79
2021/07/06 01:17:29;;;;;;;2.25;2.05;;;19.40;99.90;;;;;;3602811;39;20230;-79
2021/07/06 01:19:57;;;;;;;3.70;1.45;;;19.40;99.90;;;;;;3602540;39;20219;-79
2021/07/06 01:22:31;;;;;;;1.73;1.30;;;19.40;99.90;;;;;;3602661;39;20770;-79
2021/07/06 01:24:58;;;;;;;3.78;1.60;;;19.30;99.90;;;;;;3594159;40;20211;-79
2021/07/06 01:27:26;;;;;;;2.25;1.85;;;19.20;99.90;;;;;;3592748;40;20246;-78
2021/07/06 01:29:54;;;;;;;1.67;1.58;;;19.10;99.90;;;;;;3583937;40;20243;-81
2021/07/06 01:32:21;;;;;;;3.35;1.30;;;19.20;99.90;;;;;;3592562;40;20243;-80
2021/07/06 01:34:48;;;;;;;7.28;1.85;;;19.20;99.90;;;;;;3592555;40;20242;-78
2021/07/06 01:37:17;;;;;;;2.88;1.92;;;19.20;99.90;;;;;;3593113;40;20211;-79
2021/07/06 01:39:46;;;;;;;6.43;2.33;;;19.30;99.90;;;;;;3602222;39;20235;-78
2021/07/06 01:42:16;;;;;;;3.67;1.50;;;19.20;99.90;;;;;;3602562;39;20235;-79
2021/07/06 01:44:43;;;;;;;4.70;2.00;;;19.20;99.90;;;;;;3602529;39;20260;-78
2021/07/06 01:47:10;;;;;;;2.78;1.65;;;19.20;99.90;;;;;;3602591;39;20238;-79
2021/07/06 01:49:38;;;;;;;4.60;2.13;;;19.00;99.90;;;;;;3602389;39;20262;-79
2021/07/06 01:52:05;;;;;;;2.03;1.73;;;19.00;99.90;;;;;;3602495;39;20545;-78
2021/07/06 01:54:32;;;;;;;6.65;1.50;;;19.10;99.90;;;;;;3602629;39;20243;-78
2021/07/06 01:57:01;;;;;;;1.33;1.23;;;19.10;99.90;;;;;;3602246;40;20238;-81
2021/07/06 01:59:28;;;;;;;2.83;1.83;;;19.10;99.90;;;;;;3602238;39;20615;-83
2021/07/06 02:01:55;;;;;;;2.55;1.55;;;19.10;99.90;;;;;;3602438;39;20242;-78
2021/07/06 02:04:22;;;;;;;1.98;1.85;;;19.20;99.90;;;;;;3601603;39;20242;-78
2021/07/06 02:06:49;;;;;;;1.73;1.13;;;19.20;99.90;;;;;;3602519;39;20819;-80
2021/07/06 02:09:16;;;;;;;2.50;1.35;;;19.10;99.90;;;;;;3593729;39;20668;-79
2021/07/06 02:11:44;;;;;;;3.47;1.63;;;19.10;99.90;;;;;;3593670;39;20246;-79
2021/07/06 02:14:13;;;;;;;1.67;1.30;;;19.10;99.90;;;;;;3602348;39;20251;-78
2021/07/06 02:16:42;;;;;;;2.95;1.45;;;18.90;99.90;;;;;;3602429;39;20246;-78
2021/07/06 02:19:09;;;;;;;2.75;1.30;;;18.50;99.90;;;;;;3602136;39;20230;-82
2021/07/06 02:21:36;;;;;;;1.73;1.35;;;18.40;99.90;;;;;;3602376;39;20234;-77
2021/07/06 02:24:03;;;;;;;3.15;1.42;;;18.40;99.90;;;;;;3597780;39;20227;-80
2021/07/06 02:26:30;;;;;;;2.03;1.75;;;18.50;99.90;;;;;;3592327;40;20719;-77
2021/07/06 02:28:57;;;;;;;4.05;1.55;;;18.50;99.90;;;;;;3592143;40;20285;-77
2021/07/06 02:31:25;;;;;;;4.10;1.10;;;18.50;99.90;;;;;;3592094;40;20247;-78
2021/07/06 02:33:52;;;;;;;1.90;1.52;;;18.40;99.90;;;;;;3592347;40;20238;-78
2021/07/06 02:36:19;;;;;;;2.55;1.30;;;18.40;99.90;;;;;;3592294;40;20670;-78
2021/07/06 02:38:46;;;;;;;5.55;1.75;;;18.40;99.90;;;;;;3583605;40;20238;-78
2021/07/06 02:41:13;;;;;;;3.50;1.60;;;18.50;99.90;;;;;;3592046;40;20231;-78
2021/07/06 02:43:41;;;;;;;2.40;1.42;;;18.40;99.90;;;;;;3592228;40;20314;-78
2021/07/06 02:46:08;;;;;;;1.77;1.40;;;18.40;99.90;;;;;;3592167;40;20242;-79
2021/07/06 02:48:37;;;;;;;2.53;1.58;;;18.40;99.90;;;;;;3592075;40;20243;-76
2021/07/06 02:51:04;;;;;;;3.03;1.52;;;18.40;99.90;;;;;;3583067;40;20239;-76
2021/07/06 02:53:31;;;;;;;3.22;1.25;;;18.40;99.90;;;;;;3597765;39;20234;-77
2021/07/06 02:55:58;;;;;;;2.88;1.80;;;18.30;99.90;;;;;;3601882;39;20219;-76
2021/07/06 02:58:25;;;;;;;1.83;1.70;;;18.30;99.90;;;;;;3601957;39;20242;-77
2021/07/06 03:00:51;;;;;;;2.45;1.80;;;18.30;99.90;;;;;;3601644;39;20227;-77
2021/07/06 03:03:18;;;;;;;2.05;1.40;;;18.30;99.90;;;;;;3601938;39;20218;-77
2021/07/06 03:05:47;;;;;;;2.10;1.65;;;18.30;99.90;;;;;;3593206;39;20239;-78
2021/07/06 03:08:14;;;;;;;1.60;1.50;;;18.30;99.90;;;;;;3593068;40;20242;-76
2021/07/06 03:10:41;;;;;;;4.25;1.90;;;18.30;99.90;;;;;;3592380;40;20210;-79
2021/07/06 03:13:09;;;;;;;3.58;1.70;;;18.30;99.90;;;;;;3601509;39;20242;-78
2021/07/06 03:15:37;;;;;;;1.42;1.33;;;18.20;99.90;;;;;;3593860;40;20241;-81
2021/07/06 03:18:09;;;;;;;3.97;1.98;;;18.20;99.90;;;;;;3602859;40;20241;-79
2021/07/06 03:20:36;;;;;;;2.03;1.65;;;18.30;99.90;;;;;;3602284;40;20253;-77
2021/07/06 03:23:04;;;;;;;3.20;1.30;;;18.10;99.90;;;;;;3602371;40;20599;-77
2021/07/06 03:25:32;;;;;;;3.83;1.95;;;18.10;99.90;;;;;;3602295;39;20238;-77
2021/07/06 03:28:01;;;;;;;2.15;1.27;;;18.20;99.90;;;;;;3585788;39;20599;-79
2021/07/06 03:30:29;;;;;;;1.83;1.70;;;18.10;99.90;;;;;;3602488;39;20226;-78
2021/07/06 03:32:58;;;;;;;1.85;1.75;;;18.10;99.90;;;;;;3593963;40;20234;-77
2021/07/06 03:35:26;;;;;;;2.08;1.60;;;18.10;99.90;;;;;;3601631;39;20238;-78
2021/07/06 03:37:56;;;;;;;1.45;1.35;;;18.10;99.90;;;;;;3602637;39;20226;-77
2021/07/06 03:40:25;;;;;;;2.88;1.70;;;18.10;99.90;;;;;;3602385;39;20203;-77
2021/07/06 03:42:53;;;;;;;3.42;1.70;;;18.00;99.90;;;;;;3593793;39;20238;-77
2021/07/06 03:45:22;;;;;;;2.38;1.35;;;18.00;99.90;;;;;;3602502;39;20724;-78
2021/07/06 03:47:50;;;;;;;1.80;1.70;;;18.10;99.90;;;;;;3602314;39;20250;-79
2021/07/06 03:50:19;;;;;;;3.05;1.40;;;18.10;99.90;;;;;;3601932;39;20238;-77
2021/07/06 03:52:46;;;;;;;2.10;1.38;;;18.10;99.90;;;;;;3601572;40;20299;-77
2021/07/06 03:55:14;;;;;;;4.30;2.10;;;18.10;99.90;;;;;;3601724;40;20211;-77
2021/07/06 03:57:42;;;;;;;1.40;1.30;;;18.20;99.90;;;;;;3601784;40;20245;-77
2021/07/06 04:00:11;;;;;;;1.65;1.30;;;18.30;99.90;;;;;;3601160;40;20242;-77
2021/07/06 04:02:40;;;;;;;2.08;1.33;;;18.20;99.90;;;;;;3591728;40;20669;-78
2021/07/06 04:05:12;;;;;;;1.88;1.77;;;18.40;99.90;;;;;;3600720;40;20744;-81
2021/07/06 04:07:40;;;;;;;2.42;1.33;;;18.30;99.90;;;;;;3599161;39;20246;-76
2021/07/06 04:10:10;;;;;;;2.47;1.30;;;18.30;99.90;;;;;;3596818;40;20251;-76
2021/07/06 04:12:38;;;;;;;2.10;1.83;;;18.30;99.90;;;;;;3589852;40;20246;-77
2021/07/06 04:15:08;;;;;;;1.67;1.58;;;18.50;99.90;;;;;;3598598;40;20249;-76
2021/07/06 04:17:40;;;;;;;3.78;1.40;;;18.40;99.90;;;;;;3598155;40;20246;-75
2021/07/06 04:20:10;;;;;;;1.63;1.10;;;18.30;99.90;;;;;;3597664;40;20615;-76
2021/07/06 04:22:37;;;;;;;4.05;1.50;;;18.30;99.90;;;;;;3598164;40;20415;-76
2021/07/06 04:25:06;;;;;;;3.58;1.65;;;18.20;99.90;;;;;;3597977;40;20314;-76
2021/07/06 04:27:33;;;;;;;1.70;1.60;;;18.30;99.90;;;;;;3588486;40;20279;-75
2021/07/06 04:30:00;;;;;;;3.00;1.35;;;18.30;99.90;;;;;;3587103;40;20246;-76
2021/07/06 04:32:28;;;;;;;1.85;1.58;;;18.30;99.90;;;;;;3587096;40;20251;-76
2021/07/06 04:34:56;;;;;;;2.80;2.10;;;18.40;99.90;;;;;;3587942;40;20234;-76
2021/07/06 04:37:23;;;;;;;2.92;1.60;;;18.50;99.90;;;;;;3586462;40;20238;-77
2021/07/06 04:39:50;;;;;;;1.40;1.20;;;18.60;99.90;;;;;;3586617;40;20246;-78
2021/07/06 04:42:17;;;;;;;1.40;1.30;;;18.70;99.90;;;;;;3576971;40;20569;-75
2021/07/06 04:44:44;;;;;;;3.17;1.52;;;18.70;99.90;;;;;;3586693;40;20321;-76
2021/07/06 04:47:11;;;;;;;5.13;1.92;;;18.90;99.90;;;;;;3587636;40;20258;-76
2021/07/06 04:49:40;;;;;;;2.67;1.38;;;18.90;99.90;;;;;;3587334;40;20440;-76
2021/07/06 04:52:09;;;;;;;2.72;1.42;;;19.10;99.90;;;;;;3578709;40;20317;-75
2021/07/06 04:54:36;;;;;;;4.03;2.05;;;19.30;99.90;;;;;;3587952;40;20542;-77
2021/07/06 04:57:09;;;;;;;2.15;1.27;;;19.40;99.90;;;;;;3588267;40;20251;-76
2021/07/06 04:59:36;;;;;;;3.83;1.50;;;19.50;99.90;;;;;;3588496;40;20282;-76
2021/07/06 05:02:04;;;;;;;2.08;1.50;;;19.80;99.90;;;;;;3588983;40;20243;-76
2021/07/06 05:04:31;;;;;;;7.88;3.63;;;19.80;99.90;;;;;;3597528;40;20230;-76
2021/07/06 05:07:00;;;;;;;4.43;2.15;;;19.80;99.90;;;;;;3588578;40;20290;-76
2021/07/06 05:09:27;;;;;;;4.40;1.38;;;19.80;99.90;;;;;;3597757;40;20625;-76
2021/07/06 05:11:54;;;;;;;1.40;1.30;;;19.90;99.90;;;;;;3588295;40;20250;-76
2021/07/06 05:14:21;;;;;;;7.35;1.60;;;19.80;99.90;;;;;;3597474;40;20245;-76
2021/07/06 05:16:48;;;;;;;1.50;1.40;;;19.70;99.90;;;;;;3597381;40;20231;-77
2021/07/06 05:19:15;;;;;;;3.35;1.40;;;19.60;99.90;;;;;;3598222;40;20249;-77
2021/07/06 05:21:42;;;;;;;1.30;1.20;;;19.80;99.90;;;;;;3598505;40;20249;-76
2021/07/06 05:24:11;;;;;;;3.63;1.88;;;19.90;99.90;;;;;;3598011;40;20539;-76
2021/07/06 05:26:41;;;;;;;1.45;1.33;;;20.20;99.90;;;;;;3589931;40;20249;-76
2021/07/06 05:29:08;;;;;;;3.63;1.55;;;20.40;99.90;;;;;;3597570;40;20234;-76
2021/07/06 05:31:35;;;;;;;2.60;1.50;;;20.40;99.90;;;;;;3588455;40;20524;-77
2021/07/06 05:34:02;;;;;;;3.10;1.55;;;20.50;99.90;;;;;;3596764;40;20512;-76
2021/07/06 05:36:29;;;;;;;1.83;1.23;;;20.20;99.90;;;;;;3597158;40;20501;-77
2021/07/06 05:38:56;;;;;;;1.48;1.38;;;20.10;99.90;;;;;;3597491;40;20246;-75
2021/07/06 05:41:25;;;;;;;1.60;1.50;;;20.10;99.90;;;;;;3588384;40;20283;-76
2021/07/06 05:43:52;;;;;;;1.23;0.98;;;20.10;99.90;;;;;;3596754;40;20278;-76
2021/07/06 05:46:19;;;;;;;5.10;4.47;;;20.10;99.90;;;;;;3596729;40;20598;-75
2021/07/06 05:48:46;;;;;;;1.60;1.40;;;20.20;99.90;;;;;;3597168;40;20238;-76
2021/07/06 05:51:13;;;;;;;2.60;1.20;;;20.40;99.90;;;;;;3596965;40;20601;-76
2021/07/06 05:53:41;;;;;;;2.38;1.60;;;20.40;99.90;;;;;;3597725;40;20234;-77
2021/07/06 05:56:08;;;;;;;1.40;1.30;;;20.50;99.90;;;;;;3597354;40;20241;-76
2021/07/06 05:58:36;;;;;;;2.40;1.42;;;20.50;99.90;;;;;;3598648;40;20290;-77
2021/07/06 06:01:03;;;;;;;2.50;1.20;;;20.70;99.90;;;;;;3598370;40;20241;-76
2021/07/06 06:03:30;;;;;;;4.43;1.52;;;20.70;99.90;;;;;;3591205;40;20304;-77
2021/07/06 06:05:57;;;;;;;1.70;1.25;;;20.90;99.90;;;;;;3592716;40;20230;-77
2021/07/06 06:08:24;;;;;;;3.38;1.50;;;20.60;99.90;;;;;;3596427;40;20245;-78
2021/07/06 06:10:51;;;;;;;5.05;1.60;;;20.60;99.90;;;;;;3596674;40;20565;-76
2021/07/06 06:13:18;;;;;;;1.50;1.40;;;20.40;99.90;;;;;;3595292;40;20253;-75
2021/07/06 06:15:47;;;;;;;2.50;1.30;;;20.30;99.90;;;;;;3597651;40;20242;-77
2021/07/06 06:18:14;;;;;;;1.77;1.67;;;20.30;99.90;;;;;;3596724;40;20242;-76
2021/07/06 06:20:41;;;;;;;1.92;1.73;;;20.40;99.90;;;;;;3588279;40;20234;-76
2021/07/06 06:23:08;;;;;;;2.10;1.40;;;20.50;99.90;;;;;;3597282;40;20246;-77
2021/07/06 06:25:35;;;;;;;3.42;1.50;;;20.60;99.90;;;;;;3594014;40;20310;-75
2021/07/06 06:28:02;;;;;;;2.58;1.30;;;20.70;99.90;;;;;;3586549;40;20373;-75
2021/07/06 06:30:29;;;;;;;2.90;1.40;;;20.90;99.90;;;;;;3596346;40;20506;-76
2021/07/06 06:32:58;;;;;;;1.65;1.20;;;21.10;99.90;;;;;;3595815;40;20250;-76
2021/07/06 06:35:25;;;;;;;1.27;1.10;;;21.20;99.90;;;;;;3586486;40;20240;-76
2021/07/06 06:37:53;;;;;;;7.55;1.50;;;21.50;99.90;;;;;;3586747;40;20249;-75
2021/07/06 06:40:20;;;;;;;1.88;1.48;;;21.60;99.90;;;;;;3594884;40;20633;-76
2021/07/06 06:42:47;;;;;;;2.95;1.33;;;21.50;99.90;;;;;;3591796;40;20243;-76
2021/07/06 06:45:15;;;;;;;2.58;1.60;;;21.40;99.90;;;;;;3589324;40;20239;-77
2021/07/06 06:47:42;;;;;;;1.80;1.42;;;21.30;99.90;;;;;;3597101;39;20247;-81
2021/07/06 06:50:13;;;;;;;3.65;1.60;;;21.40;99.90;;;;;;3598173;40;20230;-77
2021/07/06 06:52:40;;;;;;;4.00;1.70;;;21.50;99.90;;;;;;3599381;40;20231;-77
2021/07/06 06:55:08;;;;;;;2.30;1.63;;;21.70;99.90;;;;;;3598601;40;20511;-77
2021/07/06 06:57:35;;;;;;;1.30;1.20;;;22.10;99.90;;;;;;3600709;40;20242;-78
2021/07/06 07:00:04;;;;;;;5.30;1.45;;;22.00;99.90;;;;;;3600087;40;20218;-79
2021/07/06 07:02:32;;;;;;;3.20;1.83;;;22.00;99.90;;;;;;3593667;40;20260;-78
2021/07/06 07:04:59;;;;;;;1.92;1.40;;;22.20;99.90;;;;;;3590872;40;20289;-77
2021/07/06 07:07:28;;;;;;;2.83;1.38;;;22.20;99.90;;;;;;3593580;40;20640;-77
2021/07/06 07:09:55;;;;;;;4.43;1.67;;;22.60;99.90;;;;;;3593829;40;20299;-76
2021/07/06 07:12:22;;;;;;;3.83;1.30;;;22.80;99.90;;;;;;3598805;40;20617;-77
2021/07/06 07:14:49;;;;;;;2.38;1.27;;;22.60;99.90;;;;;;3593620;40;20263;-78
2021/07/06 07:17:17;;;;;;;2.58;1.52;;;22.70;99.90;;;;;;3598004;40;20301;-77
2021/07/06 07:19:44;;;;;;;2.85;1.02;;;22.90;99.90;;;;;;3589164;40;20231;-77
2021/07/06 07:22:11;;;;;;;2.58;1.50;;;22.80;99.90;;;;;;3588615;40;20250;-77
2021/07/06 07:24:39;;;;;;;2.67;1.23;;;22.90;99.90;;;;;;3597687;39;20500;-79
2021/07/06 07:27:06;;;;;;;0.80;0.80;;;23.00;99.90;;;;;;3600347;39;20253;-79
2021/07/06 07:29:34;;;;;;;2.08;1.30;;;23.10;99.90;;;;;;3587684;40;20685;-77
2021/07/06 07:32:05;;;;;;;3.45;1.27;;;23.20;99.90;;;;;;3590578;40;20250;-81
2021/07/06 07:34:33;;;;;;;1.63;1.30;;;23.30;99.90;;;;;;3586327;40;20266;-76
2021/07/06 07:37:00;;;;;;;3.70;1.30;;;23.20;99.90;;;;;;3600528;40;20250;-78
2021/07/06 07:39:27;;;;;;;1.48;0.98;;;23.40;99.90;;;;;;3604070;40;20245;-82
2021/07/06 07:41:56;;;;;;;4.82;1.40;;;23.50;99.90;;;;;;3601732;39;20257;-80
2021/07/06 07:44:23;;;;;;;5.35;1.70;;;23.70;99.90;;;;;;3579937;40;20250;-75
2021/07/06 07:46:51;;;;;;;1.20;1.10;;;23.60;99.90;;;;;;3598523;40;20560;-78
2021/07/06 07:49:18;;;;;;;2.65;1.17;;;23.50;99.90;;;;;;3602845;39;20203;-79
2021/07/06 07:51:45;;;;;;;3.00;2.03;;;23.40;99.90;;;;;;3597829;39;20697;-79
2021/07/06 07:54:12;;;;;;;1.40;1.25;;;23.40;99.90;;;;;;3592974;40;20226;-77
2021/07/06 07:56:40;;;;;;;1.13;1.05;;;23.40;99.90;;;;;;3602420;39;20233;-77
2021/07/06 07:59:09;;;;;;;1.85;1.58;;;23.50;99.90;;;;;;3602441;39;20288;-78
2021/07/06 08:01:36;;;;;;;3.97;1.30;;;23.70;99.90;;;;;;3582612;40;20255;-80
2021/07/06 08:04:03;;;;;;;2.88;1.52;;;23.60;99.90;;;;;;3592116;40;20250;-79
2021/07/06 08:06:31;;;;;;;1.33;1.23;;;23.60;99.90;;;;;;3591891;40;20235;-78
2021/07/06 08:08:58;;;;;;;2.42;1.35;;;23.40;99.90;;;;;;3591978;40;20235;-79
2021/07/06 08:11:25;;;;;;;2.22;1.38;;;23.30;99.90;;;;;;3591855;40;20254;-78
2021/07/06 08:13:52;;;;;;;1.00;0.95;;;23.30;99.90;;;;;;3592077;40;20255;-79
2021/07/06 08:16:20;;;;;;;6.57;1.40;;;23.20;99.90;;;;;;3592362;40;20234;-79
2021/07/06 08:18:47;;;;;;;2.47;1.13;;;23.30;99.90;;;;;;3588059;40;20243;-78
2021/07/06 08:21:14;;;;;;;3.92;1.60;;;23.20;99.90;;;;;;3592083;40;20251;-79
2021/07/06 08:23:41;;;;;;;3.70;1.10;;;23.10;99.90;;;;;;3591683;40;20265;-80
2021/07/06 08:26:08;;;;;;;2.85;1.45;;;23.00;99.90;;;;;;3594878;40;20253;-80
2021/07/06 08:28:35;;;;;;;1.40;1.20;;;23.00;99.90;;;;;;3600827;40;20627;-81
2021/07/06 08:31:02;;;;;;;4.05;1.02;;;23.10;99.90;;;;;;3601388;40;20242;-78
2021/07/06 08:33:31;;;;;;;3.53;1.13;;;23.20;99.90;;;;;;3601767;39;20253;-78
2021/07/06 08:35:58;;;;;;;2.88;1.25;;;23.30;99.90;;;;;;3601797;39;20242;-78
2021/07/06 08:38:25;;;;;;;3.40;1.25;;;23.20;99.90;;;;;;3599255;39;20558;-81
2021/07/06 08:40:52;;;;;;;2.67;1.52;;;23.30;99.90;;;;;;3598335;40;20238;-78
2021/07/06 08:43:20;;;;;;;1.65;1.55;;;23.30;99.90;;;;;;3604721;39;20644;-79
2021/07/06 08:45:47;;;;;;;1.23;1.08;;;23.50;99.90;;;;;;3599547;39;20708;-78
2021/07/06 08:48:16;;;;;;;3.53;1.20;;;23.70;99.90;;;;;;3602124;39;20226;-80
2021/07/06 08:50:45;;;;;;;4.32;1.63;;;23.70;99.90;;;;;;3600041;40;20288;-79
2021/07/06 08:53:12;;;;;;;2.42;1.13;;;23.70;99.90;;;;;;3593893;40;20225;-78
2021/07/06 08:55:39;;;;;;;1.08;1.05;;;23.70;99.90;;;;;;3601773;40;20239;-80
2021/07/06 08:58:06;;;;;;;1.70;1.38;;;23.80;99.90;;;;;;3601770;40;20298;-81
2021/07/06 09:00:33;;;;;;;1.92;1.27;;;23.90;99.90;;;;;;3599683;40;20204;-78
2021/07/06 09:03:03;;;;;;;2.67;1.60;;;23.80;99.90;;;;;;3591810;40;20239;-82
2021/07/06 09:05:31;;;;;;;2.75;1.52;;;23.80;99.90;;;;;;3592054;40;20251;-82
2021/07/06 09:08:00;;;;;;;3.97;1.38;;;23.80;99.90;;;;;;3592217;40;20243;-80
2021/07/06 09:10:33;;;;;;;1.15;0.90;;;24.00;99.90;;;;;;3598937;40;20674;-79
2021/07/06 09:13:00;;;;;;;4.72;1.38;;;23.70;99.90;;;;;;3601457;40;20234;-80
2021/07/06 09:15:30;;;;;;;2.50;1.30;;;23.70;99.90;;;;;;3601830;40;20222;-78
2021/07/06 09:18:06;;;;;;;2.58;1.13;;;23.60;99.90;;;;;;3597022;40;20239;-79
2021/07/06 09:20:34;;;;;;;1.27;1.17;;;23.40;99.90;;;;;;3591742;40;20227;-78
2021/07/06 09:23:24;;;;;;;1.85;1.38;;;23.40;99.90;;;;;;3591217;40;20281;-79
2021/07/06 09:26:10;;;;;;;2.45;1.30;;;23.50;99.90;;;;;;3588103;40;20251;-79
2021/07/06 09:28:39;;;;;;;2.13;1.40;;;23.40;99.90;;;;;;3583122;40;20292;-77
2021/07/06 09:31:25;;;;;;;4.15;1.25;;;23.50;99.90;;;;;;3590815;40;20251;-79
2021/07/06 09:33:58;;;;;;;2.25;1.20;;;23.40;99.90;;;;;;3587860;40;20254;-78
2021/07/06 09:36:30;;;;;;;1.48;1.13;;;23.50;99.90;;;;;;3591592;40;20239;-82
2021/07/06 09:39:07;;;;;;;1.65;1.23;;;23.60;99.90;;;;;;3591375;40;20258;-78
2021/07/06 09:41:34;;;;;;;3.42;1.50;;;23.60;99.90;;;;;;3588235;40;20235;-79
2021/07/06 09:44:22;;;;;;;1.50;1.25;;;23.50;99.90;;;;;;3589067;40;20238;-78
2021/07/06 09:46:53;;;;;;;1.90;1.70;;;23.50;99.90;;;;;;3580384;40;20630;-81
2021/07/06 09:49:22;;;;;;;2.38;1.60;;;23.40;99.90;;;;;;3585821;40;20247;-82
2021/07/06 09:51:52;;;;;;;2.63;1.30;;;23.30;99.90;;;;;;3593450;39;20243;-81
2021/07/06 09:54:34;;;;;;;5.88;1.85;;;23.20;99.90;;;;;;3593167;39;20231;-80
2021/07/06 09:57:23;;;;;;;4.38;1.50;;;23.10;99.90;;;;;;3592082;39;20243;-85
2021/07/06 09:59:55;;;;;;;1.45;1.35;;;23.00;99.90;;;;;;3602016;39;20301;-79
2021/07/06 10:02:23;;;;;;;1.50;1.40;;;23.00;99.90;;;;;;3598759;39;20311;-79
2021/07/06 10:04:52;;;;;;;2.50;0.93;;;22.90;99.90;;;;;;3593841;39;20690;-81
2021/07/06 10:07:20;;;;;;;2.30;1.38;;;22.90;99.90;;;;;;3592895;40;20258;-80
2021/07/06 10:09:50;;;;;;;2.78;1.67;;;22.60;99.90;;;;;;3593096;39;20258;-82
2021/07/06 10:12:18;;;;;;;1.55;1.45;;;22.60;99.90;;;;;;3602028;39;20238;-81
2021/07/06 10:14:50;;;;;;;2.65;1.35;;;22.50;99.90;;;;;;3592924;39;20234;-81
2021/07/06 10:17:18;;;;;;;1.63;1.52;;;22.40;99.90;;;;;;3591878;40;20230;-82
2021/07/06 10:19:47;;;;;;;1.85;1.38;;;22.40;99.90;;;;;;3585059;39;20250;-82
2021/07/06 10:22:15;;;;;;;3.50;2.20;;;22.30;99.90;;;;;;3588169;39;20234;-80
2021/07/06 10:24:47;;;;;;;2.20;1.80;;;22.30;99.90;;;;;;3594738;39;20239;-78
2021/07/06 10:27:21;;;;;;;2.72;1.85;;;22.20;99.90;;;;;;3599278;39;20238;-81
2021/07/06 10:29:48;;;;;;;1.55;1.27;;;22.20;99.90;;;;;;3592551;40;20234;-78
2021/07/06 10:32:38;;;;;;;2.67;1.33;;;22.10;99.90;;;;;;3595711;40;20231;-79
2021/07/06 10:35:09;;;;;;;2.72;1.20;;;22.10;99.90;;;;;;3592643;39;20245;-80
2021/07/06 10:37:37;;;;;;;1.30;1.20;;;21.90;99.90;;;;;;3603710;39;20729;-81
2021/07/06 10:40:17;;;;;;;2.25;1.60;;;21.80;99.90;;;;;;3611783;39;20241;-79
2021/07/06 10:42:49;;;;;;;4.60;1.58;;;21.70;99.90;;;;;;3611691;39;20650;-84
2021/07/06 10:45:18;;;;;;;4.75;1.90;;;21.70;99.90;;;;;;3610523;39;20234;-79
2021/07/06 10:47:48;;;;;;;3.00;2.13;;;21.50;99.90;;;;;;3595096;39;20262;-79
2021/07/06 10:50:52;;;;;;;2.92;2.00;;;21.10;99.90;;;;;;3591211;40;20251;-78
2021/07/06 10:53:21;;;;;;;2.03;1.83;;;20.50;99.90;;;;;;3592111;39;20245;-77
2021/07/06 10:56:01;;;;;;;4.80;3.38;;;20.40;99.90;;;;;;3591477;40;20239;-78
2021/07/06 10:58:55;;;;;;;3.63;2.85;;;20.40;99.90;;;;;;3594683;40;20234;-78
2021/07/06 11:02:00;;;;;;;2.55;2.15;;;20.30;99.90;;;;;;3590990;40;20293;-77
2021/07/06 11:05:03;;;;;;;3.90;2.92;;;20.20;99.90;;;;;;3594039;40;20244;-78
2021/07/06 11:08:00;;;;;;;3.75;2.55;;;20.30;99.90;;;;;;3585824;40;20246;-78
2021/07/06 11:10:50;;;;;;;5.60;3.30;;;20.70;99.90;;;;;;3591651;40;20235;-78
2021/07/06 11:13:22;;;;;;;3.95;2.60;;;20.90;99.90;;;;;;3596491;40;20247;-79
2021/07/06 11:15:51;;;;;;;3.03;2.10;;;21.10;99.90;;;;;;3592887;40;20242;-79
2021/07/06 11:18:18;;;;;;;4.22;2.15;;;21.10;99.90;;;;;;3598295;40;20614;-78
2021/07/06 11:20:47;;;;;;;2.72;2.45;;;21.20;99.90;;;;;;3597681;40;20258;-79
2021/07/06 11:23:21;;;;;;;3.75;2.40;;;21.40;99.90;;;;;;3597707;40;20296;-78
2021/07/06 11:25:49;;;;;;;3.45;2.50;;;21.30;99.90;;;;;;3597425;40;20242;-79
2021/07/06 11:28:25;;;;;;;2.47;2.00;;;21.00;99.90;;;;;;3596736;40;20269;-78
2021/07/06 11:30:55;;;;;;;2.95;2.22;;;21.20;99.90;;;;;;3599055;40;20246;-85
2021/07/06 11:33:23;;;;;;;4.90;2.55;;;21.40;99.90;;;;;;3603202;40;20230;-80
2021/07/06 11:35:52;;;;;;;3.33;2.38;;;21.00;99.90;;;;;;3599356;40;20249;-78
2021/07/06 11:38:21;;;;;;;4.40;2.35;;;21.00;99.90;;;;;;3600727;40;20262;-80
2021/07/06 11:40:50;;;;;;;3.35;2.38;;;21.00;99.90;;;;;;3596909;40;20289;-79
2021/07/06 11:43:19;;;;;;;2.80;2.60;;;21.10;99.90;;;;;;3591530;40;20235;-80
2021/07/06 11:45:51;;;;;;;3.95;2.17;;;21.10;99.90;;;;;;3600792;40;20237;-79
2021/07/06 11:48:21;;;;;;;2.15;1.95;;;21.00;99.90;;;;;;3601293;40;20303;-80
2021/07/06 11:50:49;;;;;;;3.47;2.55;;;21.20;99.90;;;;;;3596045;39;20299;-80
2021/07/06 11:53:24;;;;;;;4.25;2.67;;;21.10;99.90;;;;;;3608435;39;20234;-83
2021/07/06 11:55:56;;;;;;;2.53;2.17;;;21.30;99.90;;;;;;3608399;39;20230;-84
2021/07/06 11:58:24;;;;;;;4.70;2.47;;;21.30;99.90;;;;;;3598480;40;20764;-80
2021/07/06 12:00:52;;;;;;;4.25;2.25;;;21.50;99.90;;;;;;3593622;39;20381;-80
2021/07/06 12:03:26;;;;;;;3.03;1.92;;;21.50;99.90;;;;;;3600183;39;20259;-80
2021/07/06 12:05:55;;;;;;;2.22;1.85;;;21.40;99.90;;;;;;3602603;39;20282;-79
2021/07/06 12:08:25;;;;;;;2.50;2.17;;;21.60;99.90;;;;;;3599782;39;20296;-78
2021/07/06 12:10:57;;;;;;;3.75;1.88;;;21.70;99.90;;;;;;3592165;40;20371;-86
2021/07/06 12:13:25;;;;;;;3.67;2.13;;;21.80;99.90;;;;;;3597073;39;20238;-79
2021/07/06 12:15:54;;;;;;;2.20;2.00;;;21.90;99.90;;;;;;3602718;39;20242;-78
2021/07/06 12:18:21;;;;;;;2.22;1.55;;;21.60;99.90;;;;;;3593101;39;20296;-80
2021/07/06 12:20:58;;;;;;;4.28;2.00;;;21.80;99.90;;;;;;3599012;39;20307;-81
2021/07/06 12:23:26;;;;;;;2.33;2.13;;;22.00;99.90;;;;;;3596400;39;20630;-81
2021/07/06 12:25:58;;;;;;;4.63;2.10;;;22.20;99.90;;;;;;3602415;39;20245;-80
2021/07/06 12:28:26;;;;;;;2.00;1.90;;;22.30;99.90;;;;;;3602723;39;20301;-81
2021/07/06 12:31:25;;;;;;;2.63;1.90;;;22.50;99.90;;;;;;3601138;39;20242;-80
2021/07/06 12:34:06;;;;;;;4.72;2.38;;;22.60;99.90;;;;;;3588244;40;20259;-80
2021/07/06 12:36:36;;;;;;;1.85;1.75;;;23.00;99.90;;;;;;3597548;39;20277;-80
2021/07/06 12:39:15;;;;;;;2.13;1.70;;;23.30;99.90;;;;;;3602595;39;20227;-80
2021/07/06 12:41:43;;;;;;;3.33;2.03;;;23.80;99.90;;;;;;3602499;39;20305;-85
2021/07/06 12:44:11;;;;;;;1.05;1.05;;;23.80;99.90;;;;;;3602520;39;20230;-81
2021/07/06 12:46:39;;;;;;;4.00;1.10;;;23.60;99.90;;;;;;3602536;39;20525;-82
2021/07/06 12:49:08;;;;;;;1.30;1.20;;;23.00;99.90;;;;;;3601827;39;20223;-86
2021/07/06 12:51:36;;;;;;;1.00;1.00;;;22.90;99.90;;;;;;3597143;39;20768;-78
2021/07/06 12:54:06;;;;;;;1.23;1.13;;;22.70;99.90;;;;;;3591687;40;20227;-80
2021/07/06 12:56:34;;;;;;;2.60;1.35;;;22.60;99.90;;;;;;3591834;40;20250;-79
2021/07/06 12:59:24;;;;;;;1.00;1.00;;;22.40;99.90;;;;;;3591813;40;20255;-78